createdAt,value
2023-03-13T00:01:38.837Z,98271.78
2023-03-13T00:04:05.474Z,98265.25
2023-03-13T00:06:36.893Z,98266.66
2023-03-13T00:09:06.085Z,98264.78
2023-03-13T00:11:33.015Z,98257.25
2023-03-13T00:14:02.804Z,98256.66
2023-03-13T00:16:30.192Z,98261.94
2023-03-13T00:18:58.032Z,98258.78
2023-03-13T00:21:27.478Z,98259.94
2023-03-13T00:23:54.512Z,98251.66
2023-03-13T00:26:24.162Z,98250.59
2023-03-13T00:28:51.637Z,98247.81
2023-03-13T00:31:24.175Z,98240.47
2023-03-13T00:33:53.626Z,98237.91
2023-03-13T00:36:28.807Z,98233.38
2023-03-13T00:38:56.260Z,98235.13
2023-03-13T00:41:28.295Z,98236.53
2023-03-13T00:43:55.083Z,98229.56
2023-03-13T00:46:23.936Z,98234.91
2023-03-13T00:48:51.380Z,98239.00
2023-03-13T00:51:19.545Z,98233.50
2023-03-13T00:53:46.812Z,98234.31
2023-03-13T00:56:15.902Z,98224.78
2023-03-13T00:58:44.604Z,98223.97
2023-03-13T01:01:14.381Z,98223.25
2023-03-13T01:03:42.881Z,98224.53
2023-03-13T01:06:12.757Z,98221.84
2023-03-13T01:08:39.497Z,98216.19
2023-03-13T01:11:14.690Z,98222.94
2023-03-13T01:13:42.168Z,98210.81
2023-03-13T01:16:11.677Z,98205.00
2023-03-13T01:18:40.652Z,98195.69
2023-03-13T01:21:07.218Z,98193.22
2023-03-13T01:23:33.698Z,98190.66
2023-03-13T01:26:00.488Z,98189.38
2023-03-13T01:28:27.553Z,98187.16
2023-03-13T01:30:54.144Z,98194.47
2023-03-13T01:33:20.684Z,98190.94
2023-03-13T01:35:47.700Z,98195.63
2023-03-13T01:38:14.772Z,98192.59
2023-03-13T01:40:44.678Z,98190.47
2023-03-13T01:43:27.431Z,98186.75
2023-03-13T01:46:03.183Z,98186.28
2023-03-13T01:48:41.676Z,98174.84
2023-03-13T01:51:13.616Z,98172.16
2023-03-13T01:53:43.956Z,98181.50
2023-03-13T01:56:17.250Z,98176.91
2023-03-13T01:58:44.591Z,98182.69
2023-03-13T02:01:12.700Z,98185.03
2023-03-13T02:03:39.576Z,98171.97
2023-03-13T02:06:07.429Z,98172.06
2023-03-13T02:08:41.905Z,98168.31
2023-03-13T02:11:14.411Z,98153.84
2023-03-13T02:13:40.921Z,98144.19
2023-03-13T02:16:08.356Z,98139.69
2023-03-13T02:18:36.567Z,98143.50
2023-03-13T02:21:11.638Z,98142.22
2023-03-13T02:23:49.152Z,98131.66
2023-03-13T02:26:16.146Z,98130.50
2023-03-13T02:28:42.784Z,98143.81
2023-03-13T02:31:10.573Z,98129.81
2023-03-13T02:33:40.110Z,98136.72
2023-03-13T02:36:08.769Z,98136.91
2023-03-13T02:38:41.518Z,98122.81
2023-03-13T02:41:08.746Z,98109.16
2023-03-13T02:43:37.481Z,98105.56
2023-03-13T02:46:14.162Z,98108.34
2023-03-13T02:48:42.279Z,98108.72
2023-03-13T02:51:31.802Z,98113.19
2023-03-13T02:54:04.420Z,98117.25
2023-03-13T02:56:33.444Z,98114.13
2023-03-13T02:59:00.565Z,98115.28
2023-03-13T03:01:27.392Z,98105.72
2023-03-13T03:03:54.006Z,98104.28
2023-03-13T03:06:20.620Z,98100.41
2023-03-13T03:08:47.138Z,98110.66
2023-03-13T03:11:13.990Z,98111.13
2023-03-13T03:13:40.507Z,98108.34
2023-03-13T03:16:13.459Z,98107.53
2023-03-13T03:18:39.972Z,98119.06
2023-03-13T03:21:07.148Z,98120.94
2023-03-13T03:23:34.560Z,98124.56
2023-03-13T03:26:01.793Z,98122.59
2023-03-13T03:28:28.377Z,98108.13
2023-03-13T03:30:55.316Z,98108.50
2023-03-13T03:33:23.589Z,98104.72
2023-03-13T03:35:51.123Z,98105.66
2023-03-13T03:38:17.809Z,98109.31
2023-03-13T03:40:44.316Z,98119.97
2023-03-13T03:43:10.818Z,98107.28
2023-03-13T03:45:37.340Z,98113.81
2023-03-13T03:48:03.951Z,98101.88
2023-03-13T03:50:30.442Z,98091.41
2023-03-13T03:52:56.974Z,98092.81
2023-03-13T03:55:23.513Z,98085.63
2023-03-13T03:57:50.101Z,98081.28
2023-03-13T04:00:18.818Z,98086.09
2023-03-13T04:02:45.619Z,98084.97
2023-03-13T04:05:12.205Z,98086.09
2023-03-13T04:07:38.713Z,98101.53
2023-03-13T04:10:05.793Z,98110.22
2023-03-13T04:12:32.227Z,98108.19
2023-03-13T04:14:58.730Z,98085.16
2023-03-13T04:17:25.239Z,98095.69
2023-03-13T04:19:51.790Z,98085.47
2023-03-13T04:22:18.239Z,98084.41
2023-03-13T04:24:44.805Z,98083.59
2023-03-13T04:27:11.280Z,98077.00
2023-03-13T04:29:37.798Z,98074.75
2023-03-13T04:32:04.405Z,98069.06
2023-03-13T04:34:31.034Z,98066.56
2023-03-13T04:36:57.643Z,98064.56
2023-03-13T04:39:25.396Z,98069.59
2023-03-13T04:41:52.966Z,98071.84
2023-03-13T04:44:19.946Z,98075.91
2023-03-13T04:46:48.629Z,98075.91
2023-03-13T04:49:16.108Z,98069.75
2023-03-13T04:51:43.900Z,98066.44
2023-03-13T04:54:10.949Z,98063.16
2023-03-13T04:56:43.667Z,98059.69
2023-03-13T04:59:14.890Z,98060.25
2023-03-13T05:01:42.276Z,98061.88
2023-03-13T05:04:10.046Z,98059.09
2023-03-13T05:06:36.678Z,98049.44
2023-03-13T05:09:03.752Z,98049.44
2023-03-13T05:11:30.360Z,98047.97
2023-03-13T05:13:56.903Z,98055.94
2023-03-13T05:16:23.602Z,98070.56
2023-03-13T05:18:50.261Z,98058.88
2023-03-13T05:21:16.812Z,98054.81
2023-03-13T05:23:43.267Z,98052.78
2023-03-13T05:26:09.832Z,98049.19
2023-03-13T05:28:36.317Z,98048.28
2023-03-13T05:31:02.873Z,98035.78
2023-03-13T05:33:29.369Z,98032.41
2023-03-13T05:35:55.860Z,98030.44
2023-03-13T05:38:22.492Z,98024.44
2023-03-13T05:40:48.936Z,98011.19
2023-03-13T05:43:15.412Z,98007.44
2023-03-13T05:45:41.919Z,98018.03
2023-03-13T05:48:08.421Z,98018.66
2023-03-13T05:50:34.989Z,98028.88
2023-03-13T05:53:01.818Z,98032.53
2023-03-13T05:55:28.371Z,98033.75
2023-03-13T05:57:54.949Z,98027.69
2023-03-13T06:00:21.866Z,98026.38
2023-03-13T06:02:48.336Z,98028.75
2023-03-13T06:05:14.951Z,98033.78
2023-03-13T06:07:41.431Z,98043.22
2023-03-13T06:10:08.523Z,98032.06
2023-03-13T06:12:36.014Z,98021.19
2023-03-13T06:15:02.563Z,98025.41
2023-03-13T06:17:29.569Z,98016.63
2023-03-13T06:19:56.096Z,98014.22
2023-03-13T06:22:22.637Z,98009.97
2023-03-13T06:24:49.690Z,98006.19
2023-03-13T06:27:17.243Z,98001.31
2023-03-13T06:29:43.810Z,97996.00
2023-03-13T06:32:10.448Z,98000.97
2023-03-13T06:34:37.527Z,98008.44
2023-03-13T06:37:04.110Z,98001.59
2023-03-13T06:39:30.759Z,98010.13
2023-03-13T06:41:57.232Z,98007.53
2023-03-13T06:44:23.784Z,98014.00
2023-03-13T06:46:50.323Z,98021.34
2023-03-13T06:49:16.935Z,98018.75
2023-03-13T06:51:43.385Z,98020.03
2023-03-13T06:54:09.947Z,98015.16
2023-03-13T06:56:36.472Z,98019.84
2023-03-13T06:59:03.081Z,98019.44
2023-03-13T07:01:29.732Z,98017.31
2023-03-13T07:03:56.429Z,98020.84
2023-03-13T07:06:23.046Z,98021.63
2023-03-13T07:08:49.905Z,98013.41
2023-03-13T07:11:17.086Z,98021.28
2023-03-13T07:13:43.778Z,98011.69
2023-03-13T07:16:13.034Z,98012.22
2023-03-13T07:18:41.952Z,98011.63
2023-03-13T07:21:10.696Z,98007.69
2023-03-13T07:23:37.322Z,98002.75
2023-03-13T07:26:16.448Z,98004.38
2023-03-13T07:28:43.429Z,97999.75
2023-03-13T07:31:14.570Z,98007.06
2023-03-13T07:33:41.678Z,97992.63
2023-03-13T07:36:09.263Z,97990.66
2023-03-13T07:38:35.918Z,97989.81
2023-03-13T07:41:02.699Z,97993.91
2023-03-13T07:43:32.042Z,97976.56
2023-03-13T07:46:04.187Z,97987.34
2023-03-13T07:48:33.533Z,97985.56
2023-03-13T07:51:00.490Z,97980.50
2023-03-13T07:53:28.208Z,97978.84
2023-03-13T07:56:00.416Z,97969.84
2023-03-13T07:58:32.479Z,97959.56
2023-03-13T08:00:59.310Z,97963.41
2023-03-13T08:03:26.839Z,97962.28
2023-03-13T08:06:09.439Z,97957.28
2023-03-13T08:08:36.421Z,97944.59
2023-03-13T08:11:05.485Z,97932.25
2023-03-13T08:13:33.398Z,97933.84
2023-03-13T08:16:05.297Z,97929.84
2023-03-13T08:18:34.966Z,97926.28
2023-03-13T08:21:03.918Z,97930.28
2023-03-13T08:23:30.466Z,97922.06
2023-03-13T08:26:01.146Z,97921.41
2023-03-13T08:28:27.644Z,97921.34
2023-03-13T08:30:54.220Z,97905.66
2023-03-13T08:33:20.736Z,97892.50
2023-03-13T08:35:47.306Z,97894.84
2023-03-13T08:38:13.842Z,97886.88
2023-03-13T08:40:40.399Z,97885.50
2023-03-13T08:43:06.901Z,97890.63
2023-03-13T08:45:33.413Z,97880.63
2023-03-13T08:48:00.420Z,97868.28
2023-03-13T08:50:26.887Z,97857.69
2023-03-13T08:52:53.317Z,97867.53
2023-03-13T08:55:19.812Z,97858.53
2023-03-13T08:57:46.371Z,97861.59
2023-03-13T09:00:13.962Z,97862.63
2023-03-13T09:02:40.503Z,97868.97
2023-03-13T09:05:07.684Z,97861.78
2023-03-13T09:07:34.182Z,97864.03
2023-03-13T09:10:00.822Z,97859.47
2023-03-13T09:12:31.263Z,97853.44
2023-03-13T09:14:58.108Z,97829.44
2023-03-13T09:17:26.392Z,97822.31
2023-03-13T09:20:00.203Z,97830.06
2023-03-13T09:22:27.415Z,97813.06
2023-03-13T09:24:53.897Z,97798.28
2023-03-13T09:27:20.407Z,97795.56
2023-03-13T09:29:47.020Z,97794.91
2023-03-13T09:32:13.543Z,97794.84
2023-03-13T09:34:40.049Z,97784.34
2023-03-13T09:37:06.587Z,97789.31
2023-03-13T09:39:33.157Z,97793.25
2023-03-13T09:42:19.249Z,97794.69
2023-03-13T09:44:50.483Z,97784.66
2023-03-13T09:47:43.091Z,97768.22
2023-03-13T09:50:25.565Z,97773.63
2023-03-13T09:52:57.375Z,97759.97
2023-03-13T09:55:29.060Z,97751.97
2023-03-13T09:58:11.520Z,97753.19
2023-03-13T10:00:47.661Z,97748.25
2023-03-13T10:03:20.413Z,97728.06
2023-03-13T10:05:50.898Z,97731.31
2023-03-13T10:08:24.981Z,97732.50
2023-03-13T10:11:04.706Z,97731.06
2023-03-13T10:13:40.901Z,97729.75
2023-03-13T10:16:20.543Z,97727.63
2023-03-13T10:18:53.393Z,97713.03
2023-03-13T10:21:23.086Z,97705.97
2023-03-13T10:24:00.670Z,97689.06
2023-03-13T10:26:30.330Z,97675.53
2023-03-13T10:29:01.067Z,97680.81
2023-03-13T10:31:33.077Z,97680.63
2023-03-13T10:34:15.413Z,97665.97
2023-03-13T10:36:44.092Z,97665.50
2023-03-13T10:39:19.159Z,97651.47
2023-03-13T10:41:46.247Z,97641.00
2023-03-13T10:44:21.394Z,97644.47
2023-03-13T10:46:50.332Z,97636.25
2023-03-13T10:49:23.275Z,97631.97
2023-03-13T10:51:54.805Z,97624.44
2023-03-13T10:54:32.656Z,97616.31
2023-03-13T10:57:29.586Z,97599.59
2023-03-13T10:59:57.324Z,97600.38
2023-03-13T11:02:35.518Z,97589.31
2023-03-13T11:05:31.173Z,97587.41
2023-03-13T11:07:57.656Z,97576.84
2023-03-13T11:10:32.529Z,97572.53
2023-03-13T11:12:59.631Z,97571.75
2023-03-13T11:15:43.896Z,97560.56
2023-03-13T11:18:20.711Z,97561.63
2023-03-13T11:20:48.578Z,97547.13
2023-03-13T11:23:19.230Z,97547.09
2023-03-13T11:26:17.143Z,97535.22
2023-03-13T11:28:58.202Z,97534.47
2023-03-13T11:31:43.035Z,97530.25
2023-03-13T11:34:27.697Z,97526.66
2023-03-13T11:37:03.007Z,97508.47
2023-03-13T11:39:44.730Z,97509.56
2023-03-13T11:42:34.822Z,97497.16
2023-03-13T11:45:28.893Z,97501.56
2023-03-13T11:48:07.281Z,97482.19
2023-03-13T11:50:58.819Z,97484.78
2023-03-13T11:53:46.867Z,97477.19
2023-03-13T11:56:13.397Z,97472.34
2023-03-13T11:58:57.809Z,97456.84
2023-03-13T12:01:27.886Z,97456.41
2023-03-13T12:04:05.340Z,97448.00
2023-03-13T12:06:56.953Z,97437.06
2023-03-13T12:10:02.238Z,97431.09
2023-03-13T12:12:38.525Z,97424.41
2023-03-13T12:15:14.315Z,97416.72
2023-03-13T12:17:47.154Z,97413.63
2023-03-13T12:20:39.257Z,97400.25
2023-03-13T12:23:19.395Z,97387.19
2023-03-13T12:25:48.310Z,97380.47
2023-03-13T12:28:37.621Z,97375.28
2023-03-13T12:31:13.259Z,97355.84
2023-03-13T12:33:48.705Z,97331.13
2023-03-13T12:36:22.792Z,97330.41
2023-03-13T12:39:20.329Z,97329.78
2023-03-13T12:42:07.615Z,97329.03
2023-03-13T12:44:34.593Z,97325.09
2023-03-13T12:47:16.416Z,97315.38
2023-03-13T12:50:13.061Z,97306.63
2023-03-13T12:53:07.686Z,97282.88
2023-03-13T12:56:11.616Z,97277.03
2023-03-13T12:58:49.794Z,97268.09
2023-03-13T13:01:23.794Z,97255.44
2023-03-13T13:04:07.142Z,97242.53
2023-03-13T13:06:55.058Z,97251.66
2023-03-13T13:09:27.655Z,97245.03
2023-03-13T13:11:55.422Z,97235.97
2023-03-13T13:14:21.860Z,97219.03
2023-03-13T13:16:52.445Z,97219.81
2023-03-13T13:19:24.707Z,97205.56
2023-03-13T13:22:28.886Z,97190.69
2023-03-13T13:24:57.247Z,97193.03
2023-03-13T13:27:36.718Z,97186.59
2023-03-13T13:30:23.885Z,97177.72
2023-03-13T13:32:54.566Z,97184.28
2023-03-13T13:35:24.041Z,97186.00
2023-03-13T13:37:50.698Z,97182.47
2023-03-13T13:40:28.679Z,97170.75
2023-03-13T13:43:06.064Z,97173.22
2023-03-13T13:45:37.333Z,97167.69
2023-03-13T13:48:34.096Z,97159.06
2023-03-13T13:51:13.998Z,97161.81
2023-03-13T13:53:47.620Z,97164.94
2023-03-13T13:56:29.327Z,97162.41
2023-03-13T13:59:01.907Z,97165.00
2023-03-13T14:01:29.034Z,97160.38
2023-03-13T14:04:21.644Z,97141.63
2023-03-13T14:06:52.164Z,97143.28
2023-03-13T14:09:37.256Z,97137.81
2023-03-13T14:12:32.573Z,97127.84
2023-03-13T14:15:26.330Z,97126.78
2023-03-13T14:17:54.470Z,97123.63
2023-03-13T14:20:34.200Z,97107.25
2023-03-13T14:23:06.360Z,97106.59
2023-03-13T14:25:42.686Z,97108.50
2023-03-13T14:28:24.183Z,97098.56
2023-03-13T14:30:53.495Z,97090.84
2023-03-13T14:33:20.261Z,97100.28
2023-03-13T14:35:47.522Z,97094.66
2023-03-13T14:38:20.685Z,97084.19
2023-03-13T14:40:47.709Z,97083.84
2023-03-13T14:43:25.550Z,97071.41
2023-03-13T14:45:52.526Z,97065.69
2023-03-13T14:48:21.108Z,97053.56
2023-03-13T14:50:49.224Z,97053.81
2023-03-13T14:53:21.422Z,97045.63
2023-03-13T14:55:49.097Z,97040.00
2023-03-13T14:58:18.629Z,97030.44
2023-03-13T15:00:46.420Z,97027.25
2023-03-13T15:03:16.942Z,97018.47
2023-03-13T15:05:45.286Z,97020.59
2023-03-13T15:08:14.828Z,97012.72
2023-03-13T15:10:42.328Z,96999.94
2023-03-13T15:13:24.347Z,97007.25
2023-03-13T15:15:52.843Z,97000.44
2023-03-13T15:18:30.915Z,96979.03
2023-03-13T15:21:18.681Z,96982.03
2023-03-13T15:23:50.418Z,96977.16
2023-03-13T15:26:17.362Z,96975.56
2023-03-13T15:28:43.961Z,96970.06
2023-03-13T15:31:13.029Z,96959.56
2023-03-13T15:33:40.049Z,96950.50
2023-03-13T15:36:06.966Z,96949.59
2023-03-13T15:38:34.689Z,96950.78
2023-03-13T15:41:01.171Z,96932.44
2023-03-13T15:43:27.638Z,96930.44
2023-03-13T15:45:54.311Z,96927.13
2023-03-13T15:48:23.474Z,96917.66
2023-03-13T15:50:52.267Z,96913.50
2023-03-13T15:53:24.673Z,96917.28
2023-03-13T15:55:53.291Z,96921.53
2023-03-13T15:58:19.970Z,96907.00
2023-03-13T16:00:48.303Z,96894.81
2023-03-13T16:03:21.298Z,96872.47
2023-03-13T16:05:48.338Z,96864.56
2023-03-13T16:08:29.241Z,96851.88
2023-03-13T16:11:01.092Z,96842.66
2023-03-13T16:13:27.560Z,96829.94
2023-03-13T16:15:54.014Z,96824.78
2023-03-13T16:18:22.963Z,96822.38
2023-03-13T16:20:51.066Z,96817.19
2023-03-13T16:23:17.893Z,96802.44
2023-03-13T16:25:48.968Z,96793.38
2023-03-13T16:28:16.372Z,96775.22
2023-03-13T16:30:47.721Z,96766.25
2023-03-13T16:33:14.347Z,96769.59
2023-03-13T16:35:40.827Z,96767.50
2023-03-13T16:38:10.052Z,96770.09
2023-03-13T16:40:36.512Z,96760.06
2023-03-13T16:43:03.354Z,96760.53
2023-03-13T16:45:30.094Z,96753.41
2023-03-13T16:47:56.585Z,96759.94
2023-03-13T16:50:35.124Z,96753.91
2023-03-13T16:53:01.746Z,96742.38
2023-03-13T16:55:29.691Z,96741.06
2023-03-13T16:57:57.387Z,96736.75
2023-03-13T17:00:27.196Z,96735.53
2023-03-13T17:02:54.183Z,96729.91
2023-03-13T17:05:20.685Z,96728.22
2023-03-13T17:07:49.351Z,96723.72
2023-03-13T17:10:25.804Z,96712.81
2023-03-13T17:12:52.869Z,96709.47
2023-03-13T17:15:20.878Z,96700.75
2023-03-13T17:17:51.958Z,96705.25
2023-03-13T17:20:25.288Z,96701.28
2023-03-13T17:22:51.927Z,96700.50
2023-03-13T17:25:19.160Z,96691.81
2023-03-13T17:27:47.612Z,96681.22
2023-03-13T17:30:21.276Z,96686.28
2023-03-13T17:32:49.779Z,96678.84
2023-03-13T17:35:17.705Z,96662.78
2023-03-13T17:37:44.541Z,96666.66
2023-03-13T17:40:19.587Z,96660.53
2023-03-13T17:42:46.162Z,96661.50
2023-03-13T17:45:13.256Z,96656.09
2023-03-13T17:47:40.991Z,96642.47
2023-03-13T17:50:22.673Z,96650.41
2023-03-13T17:52:49.359Z,96646.22
2023-03-13T17:55:16.124Z,96641.56
2023-03-13T17:57:43.818Z,96631.34
2023-03-13T18:00:28.859Z,96636.47
2023-03-13T18:02:55.503Z,96639.19
2023-03-13T18:05:22.322Z,96632.03
2023-03-13T18:07:49.228Z,96616.72
2023-03-13T18:10:30.152Z,96620.00
2023-03-13T18:12:57.482Z,96604.47
2023-03-13T18:15:26.132Z,96615.59
2023-03-13T18:17:52.988Z,96636.09
2023-03-13T18:20:22.788Z,96631.47
2023-03-13T18:22:49.312Z,96628.84
2023-03-13T18:25:16.393Z,96642.66
2023-03-13T18:27:43.114Z,96648.09
2023-03-13T18:30:22.317Z,96649.44
2023-03-13T18:32:49.669Z,96644.00
2023-03-13T18:35:17.126Z,96641.28
2023-03-13T18:37:46.155Z,96650.31
2023-03-13T18:40:17.984Z,96643.47
2023-03-13T18:42:44.923Z,96645.31
2023-03-13T18:45:19.951Z,96652.88
2023-03-13T18:47:48.229Z,96634.88
2023-03-13T18:50:26.083Z,96631.69
2023-03-13T18:52:55.249Z,96651.47
2023-03-13T18:55:23.658Z,96671.75
2023-03-13T18:57:50.505Z,96676.50
2023-03-13T19:00:24.562Z,96686.59
2023-03-13T19:02:51.241Z,96696.41
2023-03-13T19:05:18.929Z,96700.91
2023-03-13T19:07:45.874Z,96705.94
2023-03-13T19:10:31.288Z,96726.66
2023-03-13T19:12:58.035Z,96732.81
2023-03-13T19:15:28.946Z,96767.13
2023-03-13T19:17:56.239Z,96834.63
2023-03-13T19:20:23.736Z,96866.97
2023-03-13T19:22:50.316Z,96867.41
2023-03-13T19:25:17.365Z,96950.75
2023-03-13T19:27:44.620Z,96945.44
2023-03-13T19:30:21.466Z,96967.06
2023-03-13T19:32:48.269Z,97037.53
2023-03-13T19:35:19.072Z,97073.91
2023-03-13T19:37:46.057Z,97077.59
2023-03-13T19:40:25.759Z,97128.78
2023-03-13T19:42:52.282Z,97153.09
2023-03-13T19:45:20.432Z,97156.94
2023-03-13T19:47:47.330Z,97163.44
2023-03-13T19:50:23.079Z,97175.81
2023-03-13T19:52:49.759Z,97181.94
2023-03-13T19:55:16.876Z,97181.09
2023-03-13T19:57:43.448Z,97169.25
2023-03-13T20:00:22.702Z,97171.00
2023-03-13T20:02:49.401Z,97162.44
2023-03-13T20:05:16.082Z,97153.16
2023-03-13T20:07:42.663Z,97149.06
2023-03-13T20:10:09.814Z,97143.56
2023-03-13T20:12:36.319Z,97134.28
2023-03-13T20:15:02.962Z,97134.16
2023-03-13T20:17:29.538Z,97141.25
2023-03-13T20:19:56.098Z,97147.66
2023-03-13T20:22:22.782Z,97153.75
2023-03-13T20:24:49.289Z,97150.47
2023-03-13T20:27:15.840Z,97134.72
2023-03-13T20:29:42.378Z,97099.44
2023-03-13T20:32:09.005Z,97054.56
2023-03-13T20:34:35.806Z,97026.22
2023-03-13T20:37:03.827Z,97009.03
2023-03-13T20:39:30.624Z,97041.81
2023-03-13T20:41:57.447Z,97048.19
2023-03-13T20:44:24.143Z,97051.91
2023-03-13T20:46:51.052Z,97042.25
2023-03-13T20:49:17.574Z,97021.25
2023-03-13T20:51:44.086Z,97025.88
2023-03-13T20:54:10.558Z,97042.53
2023-03-13T20:56:37.154Z,97049.13
2023-03-13T20:59:04.214Z,97033.25
2023-03-13T21:01:32.258Z,97049.59
2023-03-13T21:03:59.314Z,97037.19
2023-03-13T21:06:25.896Z,97077.34
2023-03-13T21:08:52.364Z,97097.66
2023-03-13T21:11:23.343Z,97112.25
2023-03-13T21:13:51.385Z,97119.75
2023-03-13T21:16:19.110Z,97118.91
2023-03-13T21:18:46.467Z,97108.75
2023-03-13T21:21:17.275Z,97101.94
2023-03-13T21:23:45.000Z,97097.03
2023-03-13T21:26:12.713Z,97108.53
2023-03-13T21:28:39.988Z,97125.00
2023-03-13T21:31:12.395Z,97124.41
2023-03-13T21:33:41.055Z,97147.66
2023-03-13T21:36:08.482Z,97163.94
2023-03-13T21:38:35.085Z,97181.41
2023-03-13T21:41:01.835Z,97193.75
2023-03-13T21:43:28.341Z,97197.34
2023-03-13T21:45:56.664Z,97199.75
2023-03-13T21:48:23.165Z,97197.88
2023-03-13T21:50:52.505Z,97201.63
2023-03-13T21:53:19.504Z,97202.91
2023-03-13T21:55:49.221Z,97214.78
2023-03-13T21:58:15.722Z,97230.25
2023-03-13T22:00:42.229Z,97231.28
2023-03-13T22:03:08.889Z,97228.31
2023-03-13T22:05:41.485Z,97231.50
2023-03-13T22:08:08.081Z,97254.88
2023-03-13T22:10:34.628Z,97252.34
2023-03-13T22:13:01.146Z,97259.13
2023-03-13T22:15:27.747Z,97274.66
2023-03-13T22:17:54.262Z,97274.66
2023-03-13T22:20:20.719Z,97282.25
2023-03-13T22:22:47.288Z,97292.59
2023-03-13T22:25:13.811Z,97297.66
2023-03-13T22:27:40.360Z,97290.91
2023-03-13T22:30:07.899Z,97283.94
2023-03-13T22:32:34.411Z,97287.19
2023-03-13T22:35:01.005Z,97289.31
2023-03-13T22:37:27.642Z,97288.53
2023-03-13T22:39:54.494Z,97297.91
2023-03-13T22:42:21.518Z,97292.84
2023-03-13T22:44:48.141Z,97279.50
2023-03-13T22:47:14.834Z,97268.69
2023-03-13T22:49:41.441Z,97251.97
2023-03-13T22:52:08.024Z,97232.41
2023-03-13T22:54:34.514Z,97224.91
2023-03-13T22:57:00.980Z,97225.88
2023-03-13T22:59:27.501Z,97222.19
2023-03-13T23:01:54.016Z,97202.78
2023-03-13T23:04:20.570Z,97193.91
2023-03-13T23:06:47.055Z,97189.66
2023-03-13T23:09:13.890Z,97198.28
2023-03-13T23:11:40.446Z,97195.69
2023-03-13T23:14:06.926Z,97190.84
2023-03-13T23:16:33.525Z,97175.19
2023-03-13T23:19:01.879Z,97160.94
2023-03-13T23:21:28.548Z,97146.47
2023-03-13T23:23:55.083Z,97134.81
2023-03-13T23:26:21.602Z,97137.59
2023-03-13T23:28:48.062Z,97144.09
2023-03-13T23:31:18.504Z,97137.28
2023-03-13T23:33:45.814Z,97131.38
2023-03-13T23:36:14.957Z,97121.66
2023-03-13T23:38:41.760Z,97115.72
2023-03-13T23:41:10.867Z,97120.19
2023-03-13T23:43:37.595Z,97116.66
2023-03-13T23:46:05.314Z,97127.94
2023-03-13T23:48:32.415Z,97131.75
2023-03-13T23:50:58.903Z,97141.75
2023-03-13T23:53:25.442Z,97146.91
2023-03-13T23:55:58.750Z,97162.69
2023-03-13T23:58:25.476Z,97177.25
